createdAt,value
2018-04-22T17:44:41.180Z,50.76
2018-04-22T17:45:41.185Z,51.41
2018-04-22T17:47:34.029Z,51.61
2018-04-22T17:48:34.021Z,52.28
2018-04-22T17:53:59.097Z,52.47
2018-04-22T17:54:59.434Z,53.03
2018-04-22T17:56:53.049Z,53.03
2018-04-22T17:57:52.943Z,52.73
2018-04-22T17:59:47.412Z,53.31
2018-04-22T18:00:50.109Z,53.99
2018-04-22T18:02:41.699Z,54.96
2018-04-22T18:03:41.686Z,54.38
2018-04-22T18:05:37.714Z,55.05
2018-04-22T18:06:37.748Z,54.86
2018-04-22T18:08:32.119Z,54.96
2018-04-22T18:09:32.173Z,55.34
2018-04-22T18:11:26.782Z,54.57
2018-04-22T18:12:27.968Z,54.96
2018-04-22T18:14:21.359Z,54.66
2018-04-22T18:15:21.277Z,55.34
2018-04-22T18:17:15.826Z,54.86
2018-04-22T18:18:15.721Z,56.01
2018-04-22T18:20:11.479Z,56.11
2018-04-22T18:21:11.401Z,55.82
2018-04-22T18:23:06.597Z,55.73
2018-04-22T18:24:05.774Z,56.21
2018-04-22T18:26:00.666Z,55.15
2018-04-22T18:27:00.691Z,56.01
2018-04-22T18:28:55.749Z,56.79
2018-04-22T18:29:55.346Z,56.98
2018-04-22T18:31:51.077Z,56.79
2018-04-22T18:32:50.651Z,56.21
2018-04-22T18:34:45.295Z,56.79
2018-04-22T18:35:45.222Z,57.14
2018-04-22T18:37:38.623Z,57.82
2018-04-22T18:38:39.190Z,57.34
2018-04-22T18:40:33.068Z,56.79
2018-04-22T18:41:33.074Z,56.95
2018-04-22T18:43:28.945Z,57.34
2018-04-22T18:44:28.954Z,57.24
2018-04-22T18:46:21.960Z,57.53
2018-04-22T18:47:21.865Z,58.30
2018-04-22T18:49:15.259Z,59.75
2018-04-22T18:50:15.264Z,62.32
2018-04-22T18:52:08.966Z,65.17
2018-04-22T18:53:08.969Z,66.78
2018-04-22T18:55:01.882Z,67.55
2018-04-22T18:56:01.905Z,68.38
2018-04-22T18:57:57.385Z,71.17
2018-04-22T18:58:56.827Z,72.61
2018-04-22T19:00:49.745Z,74.02
2018-04-22T19:01:49.931Z,72.71
2018-04-22T19:03:42.710Z,72.80
